Time;durP1;ratioP1;P1;durP2;ratioP2;P2;SDS_P1;SDS_P2;PMS_P1;PMS_P2;Temp;Humidity;BMP_temperature;BMP_pressure;BME280_temperature;BME280_humidity;BME280_pressure;Samples;Min_cycle;Max_cycle;Signal;HPM_P1;HPM_P2
2020/12/05 00:01:06;;;;;;;12.65;2.78;;;21.60;99.90;;;;;;4978280;28;20041;-89
2020/12/05 00:03:34;;;;;;;19.45;3.65;;;21.50;99.90;;;;;;4978379;28;20041;-91
2020/12/05 00:06:02;;;;;;;15.02;4.22;;;21.70;99.90;;;;;;5025954;23;20441;-90
2020/12/05 00:08:30;;;;;;;16.23;2.50;;;21.70;99.90;;;;;;5007720;28;20022;-89
2020/12/05 00:10:57;;;;;;;15.82;3.05;;;21.70;99.90;;;;;;5008416;28;20041;-90
2020/12/05 00:13:24;;;;;;;17.67;2.80;;;21.60;99.90;;;;;;4995098;28;20054;-87
2020/12/05 00:15:52;;;;;;;15.23;3.63;;;21.60;99.90;;;;;;5011547;28;20026;-88
2020/12/05 00:18:19;;;;;;;11.85;3.45;;;21.80;99.90;;;;;;5013944;28;20125;-86
2020/12/05 00:20:47;;;;;;;16.83;2.78;;;21.90;99.90;;;;;;5028173;23;21602;-84
2020/12/05 00:23:15;;;;;;;17.67;3.92;;;22.00;99.90;;;;;;5026409;28;20037;-78
2020/12/05 00:25:42;;;;;;;18.75;4.45;;;22.00;99.90;;;;;;5012374;28;20029;-80
2020/12/05 00:28:10;;;;;;;17.05;3.35;;;22.00;99.90;;;;;;5012784;28;20034;-77
2020/12/05 00:30:37;;;;;;;15.13;3.70;;;22.00;99.90;;;;;;5012739;28;20382;-77
2020/12/05 00:33:05;;;;;;;11.90;3.40;;;22.10;99.90;;;;;;5014079;28;20490;-80
2020/12/05 00:35:32;;;;;;;16.55;4.25;;;22.10;99.90;;;;;;5011808;28;20045;-82
2020/12/05 00:37:59;;;;;;;17.00;4.80;;;22.10;99.90;;;;;;5014585;28;20029;-86
2020/12/05 00:40:27;;;;;;;14.30;4.00;;;22.20;99.90;;;;;;5012462;28;20125;-79
2020/12/05 00:42:54;;;;;;;15.70;4.57;;;22.20;99.90;;;;;;5011561;28;20057;-82
2020/12/05 00:45:21;;;;;;;16.38;4.03;;;22.20;99.90;;;;;;5012454;28;20444;-81
2020/12/05 00:47:48;;;;;;;18.73;4.55;;;22.20;99.90;;;;;;5014634;28;20514;-82
2020/12/05 00:50:16;;;;;;;14.43;4.35;;;22.30;99.90;;;;;;5012554;28;20033;-81
2020/12/05 00:52:43;;;;;;;15.90;4.20;;;22.40;99.90;;;;;;5010627;28;20486;-82
2020/12/05 00:55:11;;;;;;;22.55;4.93;;;22.40;99.90;;;;;;5035044;22;20049;-82
2020/12/05 00:57:38;;;;;;;19.63;4.57;;;22.40;99.90;;;;;;5033848;28;20107;-82
2020/12/05 01:00:07;;;;;;;18.02;4.53;;;22.40;99.90;;;;;;5025309;28;20034;-83
2020/12/05 01:02:35;;;;;;;13.85;3.53;;;22.40;99.90;;;;;;5032945;28;20074;-82
2020/12/05 01:05:02;;;;;;;15.82;3.80;;;22.40;99.90;;;;;;5026898;28;20104;-82
2020/12/05 01:07:29;;;;;;;15.32;4.20;;;22.40;99.90;;;;;;5032594;28;20025;-82
2020/12/05 01:09:57;;;;;;;14.15;4.40;;;22.60;99.90;;;;;;5032270;28;20029;-82
2020/12/05 01:12:26;;;;;;;17.90;4.25;;;22.80;99.90;;;;;;5034196;28;20053;-81
2020/12/05 01:14:54;;;;;;;18.88;4.25;;;23.00;99.90;;;;;;5030967;28;20030;-82
2020/12/05 01:17:35;;;;;;;15.13;4.05;;;23.40;99.90;;;;;;5033789;28;20017;-82
2020/12/05 01:20:07;;;;;;;18.17;4.47;;;23.30;99.90;;;;;;5031835;28;20033;-81
2020/12/05 01:22:34;;;;;;;16.15;4.63;;;23.30;99.90;;;;;;5033924;28;20022;-81
2020/12/05 01:25:02;;;;;;;22.23;3.40;;;23.20;99.90;;;;;;5031288;28;20045;-81
2020/12/05 01:27:30;;;;;;;18.55;4.30;;;23.10;99.90;;;;;;5032084;28;20465;-82
2020/12/05 01:29:57;;;;;;;16.08;4.32;;;23.00;99.90;;;;;;5031403;28;20075;-81
2020/12/05 01:32:24;;;;;;;15.93;3.55;;;23.10;99.90;;;;;;5033599;28;20032;-82
2020/12/05 01:34:52;;;;;;;19.52;5.07;;;23.20;99.90;;;;;;5030781;28;20577;-80
2020/12/05 01:37:19;;;;;;;17.05;4.88;;;23.20;99.90;;;;;;5030896;28;20417;-81
2020/12/05 01:39:46;;;;;;;18.85;5.43;;;23.20;99.90;;;;;;5030985;28;20501;-82
2020/12/05 01:42:13;;;;;;;21.67;5.90;;;23.20;99.90;;;;;;5031885;28;20029;-82
2020/12/05 01:44:41;;;;;;;16.48;6.03;;;23.20;99.90;;;;;;5030092;28;20069;-82
2020/12/05 01:47:11;;;;;;;15.80;6.68;;;23.30;99.90;;;;;;5013079;28;20034;-82
2020/12/05 01:49:38;;;;;;;25.45;9.00;;;23.40;99.90;;;;;;5018911;28;20017;-82
2020/12/05 01:52:06;;;;;;;18.50;7.53;;;23.60;99.90;;;;;;5031379;28;20528;-82
2020/12/05 01:54:35;;;;;;;19.90;8.65;;;23.90;99.90;;;;;;5043066;22;20050;-83
2020/12/05 01:57:05;;;;;;;24.88;9.07;;;23.90;99.90;;;;;;5013916;22;20511;-81
2020/12/05 01:59:33;;;;;;;23.73;8.27;;;23.70;99.90;;;;;;4995865;23;20058;-82
2020/12/05 02:02:06;;;;;;;16.63;7.47;;;23.80;99.90;;;;;;4983619;28;20027;-81
2020/12/05 02:05:03;;;;;;;24.85;9.40;;;24.00;99.90;;;;;;5022263;23;20057;-82
2020/12/05 02:07:38;;;;;;;18.77;6.32;;;24.20;99.90;;;;;;5001939;28;20033;-81
2020/12/05 02:10:09;;;;;;;18.25;6.10;;;24.40;99.90;;;;;;5002308;28;20033;-82
2020/12/05 02:12:55;;;;;;;20.90;6.35;;;24.20;99.90;;;;;;5030477;22;20132;-82
2020/12/05 02:15:28;;;;;;;14.10;4.63;;;24.00;99.90;;;;;;5009608;28;20033;-82
2020/12/05 02:18:04;;;;;;;22.27;6.15;;;24.00;99.90;;;;;;5046760;28;20021;-81
2020/12/05 02:20:39;;;;;;;14.75;5.75;;;24.20;99.90;;;;;;5063495;28;20024;-82
2020/12/05 02:23:15;;;;;;;17.95;6.68;;;24.30;99.90;;;;;;5072562;28;20092;-82
2020/12/05 02:26:06;;;;;;;23.10;8.30;;;24.30;99.90;;;;;;5067704;28;20032;-82
2020/12/05 02:28:34;;;;;;;18.02;7.78;;;24.30;99.90;;;;;;5061718;23;20081;-82
2020/12/05 02:31:02;;;;;;;21.95;7.32;;;24.50;99.90;;;;;;5010498;28;20057;-81
2020/12/05 02:33:29;;;;;;;18.17;8.68;;;24.80;99.90;;;;;;5019068;28;20052;-83
2020/12/05 02:35:56;;;;;;;20.33;8.02;;;24.80;99.90;;;;;;5046082;28;20040;-83
2020/12/05 02:38:34;;;;;;;17.20;7.90;;;24.80;99.90;;;;;;5047415;28;20039;-82
2020/12/05 02:41:02;;;;;;;20.60;9.38;;;24.90;99.90;;;;;;5067626;28;20056;-83
2020/12/05 02:43:29;;;;;;;22.38;10.57;;;25.00;99.90;;;;;;5049648;28;20028;-82
2020/12/05 02:45:58;;;;;;;27.13;9.90;;;24.80;99.90;;;;;;5052850;28;20033;-82
2020/12/05 02:48:26;;;;;;;18.95;9.50;;;24.70;99.90;;;;;;5052061;28;20412;-81
2020/12/05 02:50:53;;;;;;;23.45;9.63;;;24.50;99.90;;;;;;5065612;28;20024;-83
2020/12/05 02:53:21;;;;;;;17.90;9.48;;;24.50;99.90;;;;;;5054191;28;20063;-81
2020/12/05 02:55:48;;;;;;;22.00;9.57;;;24.40;99.90;;;;;;5052092;28;20036;-81
2020/12/05 02:58:15;;;;;;;17.42;8.55;;;24.30;99.90;;;;;;5051678;28;20037;-83
2020/12/05 03:00:43;;;;;;;22.38;11.13;;;24.40;99.90;;;;;;5072855;23;20097;-78
2020/12/05 03:03:10;;;;;;;22.35;12.55;;;24.30;99.90;;;;;;5012452;28;20037;-83
2020/12/05 03:05:37;;;;;;;21.02;12.50;;;24.30;99.90;;;;;;5037329;28;20040;-81
2020/12/05 03:08:05;;;;;;;22.15;12.02;;;24.30;99.90;;;;;;5066647;28;20085;-81
2020/12/05 03:10:32;;;;;;;25.33;12.15;;;24.30;99.90;;;;;;5068316;28;20028;-79
2020/12/05 03:12:59;;;;;;;26.55;12.68;;;24.30;99.90;;;;;;5071626;28;20024;-81
2020/12/05 03:15:26;;;;;;;21.65;11.77;;;24.30;99.90;;;;;;5037721;28;20115;-81
2020/12/05 03:17:54;;;;;;;23.63;13.52;;;24.40;99.90;;;;;;5051602;28;20028;-80
2020/12/05 03:20:21;;;;;;;25.73;15.20;;;24.50;99.90;;;;;;5061091;28;20028;-81
2020/12/05 03:22:48;;;;;;;21.20;14.60;;;24.50;99.90;;;;;;5067105;28;20074;-81
2020/12/05 03:25:15;;;;;;;27.10;15.80;;;24.50;99.90;;;;;;5042414;28;20024;-82
2020/12/05 03:27:43;;;;;;;25.55;15.70;;;24.40;99.90;;;;;;5037010;28;20040;-81
2020/12/05 03:30:10;;;;;;;27.95;16.55;;;24.30;99.90;;;;;;5031232;28;20474;-81
2020/12/05 03:32:38;;;;;;;28.38;16.88;;;24.20;99.90;;;;;;5054344;28;20028;-81
2020/12/05 03:35:05;;;;;;;29.30;16.60;;;24.10;99.90;;;;;;5052240;28;20032;-81
2020/12/05 03:37:32;;;;;;;26.73;15.57;;;24.10;99.90;;;;;;5067660;28;20035;-81
2020/12/05 03:40:00;;;;;;;24.70;14.63;;;24.10;99.90;;;;;;5043841;28;20356;-81
2020/12/05 03:42:27;;;;;;;26.13;15.85;;;24.00;99.90;;;;;;5024559;28;20044;-81
2020/12/05 03:44:54;;;;;;;27.77;15.70;;;24.00;99.90;;;;;;5058266;28;20059;-82
2020/12/05 03:47:21;;;;;;;32.40;16.50;;;23.90;99.90;;;;;;5051042;28;20078;-81
2020/12/05 03:49:49;;;;;;;30.70;17.90;;;23.90;99.90;;;;;;5042033;28;20056;-81
2020/12/05 03:52:16;;;;;;;28.20;16.15;;;23.80;99.90;;;;;;5068264;28;20079;-81
2020/12/05 03:54:44;;;;;;;23.35;15.35;;;23.80;99.90;;;;;;5060888;28;20082;-82
2020/12/05 03:57:11;;;;;;;25.17;16.08;;;23.80;99.90;;;;;;5047813;28;20036;-81
2020/12/05 03:59:39;;;;;;;24.95;14.93;;;23.70;99.90;;;;;;5046039;28;20078;-81
2020/12/05 04:02:06;;;;;;;29.42;15.65;;;23.70;99.90;;;;;;5058775;23;20046;-81
2020/12/05 04:04:33;;;;;;;28.58;15.68;;;23.70;99.90;;;;;;5027513;23;20486;-81
2020/12/05 04:07:01;;;;;;;25.75;15.35;;;23.70;99.90;;;;;;5034949;23;20054;-84
2020/12/05 04:09:28;;;;;;;31.40;16.92;;;23.70;99.90;;;;;;5055194;23;20029;-82
2020/12/05 04:11:56;;;;;;;30.45;16.73;;;23.80;99.90;;;;;;5031020;28;20033;-82
2020/12/05 04:14:23;;;;;;;30.33;16.92;;;23.70;99.90;;;;;;5033283;28;20025;-81
2020/12/05 04:16:50;;;;;;;27.60;16.23;;;23.80;99.90;;;;;;5053632;28;20147;-82
2020/12/05 04:19:17;;;;;;;31.23;16.33;;;23.70;99.90;;;;;;5033396;23;20058;-82
2020/12/05 04:21:45;;;;;;;32.10;19.27;;;23.60;99.90;;;;;;4999517;28;20026;-81
2020/12/05 04:24:12;;;;;;;30.73;17.02;;;23.60;99.90;;;;;;5002680;28;20023;-81
2020/12/05 04:26:39;;;;;;;26.58;15.88;;;23.60;99.90;;;;;;5034934;28;20036;-81
2020/12/05 04:29:06;;;;;;;30.80;17.27;;;23.50;99.90;;;;;;5040310;28;20041;-82
2020/12/05 04:31:34;;;;;;;31.55;16.92;;;23.40;99.90;;;;;;5036118;28;20072;-83
2020/12/05 04:34:01;;;;;;;32.58;16.90;;;23.30;99.90;;;;;;5033695;28;20500;-81
2020/12/05 04:36:28;;;;;;;24.45;15.60;;;23.40;99.90;;;;;;5024063;23;20494;-81
2020/12/05 04:38:56;;;;;;;28.60;16.05;;;23.40;99.90;;;;;;5039007;28;20021;-81
2020/12/05 04:41:24;;;;;;;24.38;15.75;;;23.40;99.90;;;;;;5023910;28;20041;-81
2020/12/05 04:43:53;;;;;;;28.10;14.95;;;23.40;99.90;;;;;;5039949;28;20083;-81
2020/12/05 04:46:21;;;;;;;27.58;15.35;;;23.50;99.90;;;;;;5043161;28;20046;-82
2020/12/05 04:48:49;;;;;;;29.50;13.23;;;23.60;99.90;;;;;;5038695;28;20039;-85
2020/12/05 04:51:21;;;;;;;23.50;12.52;;;23.60;99.90;;;;;;5046697;28;20025;-87
2020/12/05 04:53:49;;;;;;;22.65;11.45;;;23.60;99.90;;;;;;5032452;28;20060;-88
2020/12/05 04:56:16;;;;;;;21.85;11.85;;;23.60;99.90;;;;;;5037482;28;20025;-90
2020/12/05 04:58:50;;;;;;;23.15;11.23;;;23.70;99.90;;;;;;5039073;28;20025;-86
2020/12/05 05:01:19;;;;;;;18.65;10.55;;;23.70;99.90;;;;;;5045798;28;20062;-84
2020/12/05 05:03:47;;;;;;;21.85;11.57;;;23.70;99.90;;;;;;5028731;28;20041;-84
2020/12/05 05:06:22;;;;;;;21.40;10.32;;;23.80;99.90;;;;;;5039477;28;20045;-83
2020/12/05 05:08:49;;;;;;;22.20;9.88;;;23.70;99.90;;;;;;5037770;23;20050;-89
2020/12/05 05:11:18;;;;;;;22.42;10.02;;;23.60;99.90;;;;;;5013975;28;20056;-85
2020/12/05 05:14:04;;;;;;;23.35;9.80;;;23.60;99.90;;;;;;5012511;28;20150;-85
2020/12/05 05:16:31;;;;;;;20.15;8.90;;;23.50;99.90;;;;;;4997542;28;20030;-84
2020/12/05 05:19:20;;;;;;;16.88;7.72;;;23.40;99.90;;;;;;5026189;28;20025;-87
2020/12/05 05:21:48;;;;;;;24.23;8.10;;;23.30;99.90;;;;;;5047963;28;20017;-86
2020/12/05 05:24:21;;;;;;;26.20;8.52;;;23.20;99.90;;;;;;5050280;28;20078;-87
2020/12/05 05:27:06;;;;;;;16.75;8.00;;;23.20;99.90;;;;;;5041334;28;20037;-88
2020/12/05 05:29:41;;;;;;;22.65;9.38;;;23.10;99.90;;;;;;5036532;28;20057;-86
2020/12/05 05:32:19;;;;;;;25.30;7.85;;;23.20;99.90;;;;;;5047982;28;20028;-88
2020/12/05 05:34:46;;;;;;;19.77;8.48;;;23.10;99.90;;;;;;5048439;28;20079;-87
2020/12/05 05:37:18;;;;;;;20.90;8.52;;;23.10;99.90;;;;;;5041677;28;20029;-86
2020/12/05 05:39:53;;;;;;;20.85;8.32;;;23.10;99.90;;;;;;5035313;28;20108;-85
2020/12/05 05:42:33;;;;;;;17.33;7.32;;;23.10;99.90;;;;;;5059289;28;20029;-87
2020/12/05 05:45:23;;;;;;;20.02;8.00;;;23.20;99.90;;;;;;5049219;28;20032;-82
2020/12/05 05:47:53;;;;;;;25.05;8.10;;;23.20;99.90;;;;;;5054265;28;20028;-80
2020/12/05 05:50:36;;;;;;;20.90;9.77;;;23.10;99.90;;;;;;5054330;28;20029;-78
2020/12/05 05:53:09;;;;;;;19.77;8.90;;;23.10;99.90;;;;;;5033052;28;20031;-79
2020/12/05 05:55:43;;;;;;;22.55;8.52;;;23.00;99.90;;;;;;5060075;28;20037;-75
2020/12/05 05:58:11;;;;;;;20.73;8.70;;;23.10;99.90;;;;;;5041641;28;20037;-76
2020/12/05 06:00:41;;;;;;;25.67;10.48;;;23.10;99.90;;;;;;5064818;28;20048;-85
2020/12/05 06:03:29;;;;;;;21.33;9.45;;;23.20;99.90;;;;;;5042665;28;20037;-85
2020/12/05 06:06:00;;;;;;;20.42;9.45;;;23.20;99.90;;;;;;5038105;28;20072;-79
2020/12/05 06:08:29;;;;;;;21.75;9.15;;;23.10;99.90;;;;;;5055005;23;20060;-78
2020/12/05 06:11:01;;;;;;;20.48;10.05;;;23.10;99.90;;;;;;5030271;23;20190;-82
2020/12/05 06:13:31;;;;;;;20.42;10.43;;;23.20;99.90;;;;;;5019787;23;20070;-88
2020/12/05 06:16:00;;;;;;;20.00;9.25;;;23.30;99.90;;;;;;5010221;28;20105;-88
2020/12/05 06:18:28;;;;;;;12.55;8.48;;;23.30;99.90;;;;;;5014491;23;20141;-88
2020/12/05 06:20:56;;;;;;;13.68;8.38;;;23.30;99.90;;;;;;5011101;28;20022;-89
2020/12/05 06:23:35;;;;;;;16.63;8.35;;;23.40;99.90;;;;;;5008086;28;20038;-89
2020/12/05 06:26:04;;;;;;;14.45;8.65;;;23.60;99.90;;;;;;5026867;23;20140;-89
2020/12/05 06:28:31;;;;;;;13.15;7.38;;;23.70;99.90;;;;;;4990974;28;20042;-89
2020/12/05 06:30:59;;;;;;;10.70;6.88;;;23.80;99.90;;;;;;5006387;28;20037;-90
2020/12/05 06:33:52;;;;;;;9.65;5.82;;;24.00;99.90;;;;;;5005013;28;20021;-87
2020/12/05 06:36:40;;;;;;;11.30;6.60;;;24.10;99.90;;;;;;4994624;28;20049;-86
2020/12/05 06:39:07;;;;;;;9.73;6.30;;;24.00;99.90;;;;;;5008090;28;20029;-87
2020/12/05 06:41:36;;;;;;;12.07;6.80;;;24.00;99.90;;;;;;5008513;28;20129;-88
2020/12/05 06:44:14;;;;;;;12.40;6.57;;;24.00;99.90;;;;;;5002414;23;20494;-85
2020/12/05 06:46:52;;;;;;;11.60;6.55;;;24.00;99.90;;;;;;4997172;28;20508;-83
2020/12/05 06:49:37;;;;;;;12.32;6.28;;;24.00;99.90;;;;;;4981729;28;20371;-84
2020/12/05 06:52:23;;;;;;;10.15;6.80;;;24.10;99.90;;;;;;4998931;28;20113;-82
2020/12/05 06:54:53;;;;;;;13.27;8.25;;;24.10;99.90;;;;;;4995194;28;20033;-85
2020/12/05 06:57:22;;;;;;;13.68;8.18;;;24.10;99.90;;;;;;4995190;28;20539;-84
2020/12/05 06:59:50;;;;;;;10.73;6.45;;;24.00;99.90;;;;;;4995580;28;20072;-84
2020/12/05 07:02:35;;;;;;;10.20;7.20;;;24.00;99.90;;;;;;5004536;28;20113;-84
2020/12/05 07:05:21;;;;;;;14.60;8.13;;;24.00;99.90;;;;;;4985062;28;20026;-82
2020/12/05 07:07:50;;;;;;;11.73;7.57;;;23.90;99.90;;;;;;5004239;28;20046;-87
2020/12/05 07:10:18;;;;;;;11.80;7.60;;;23.90;99.90;;;;;;5000870;28;20416;-84
2020/12/05 07:12:46;;;;;;;11.00;6.43;;;24.00;99.90;;;;;;4994833;28;20025;-84
2020/12/05 07:15:28;;;;;;;11.48;6.60;;;23.90;99.90;;;;;;5013615;23;20084;-84
2020/12/05 07:17:56;;;;;;;11.23;6.78;;;24.00;99.90;;;;;;4990206;28;20033;-87
2020/12/05 07:20:24;;;;;;;8.70;6.55;;;24.00;99.90;;;;;;5007211;28;20014;-87
2020/12/05 07:22:55;;;;;;;12.82;7.15;;;24.00;99.90;;;;;;5008057;28;20056;-86
2020/12/05 07:25:23;;;;;;;15.02;7.55;;;24.00;99.90;;;;;;5007961;28;20094;-87
2020/12/05 07:27:50;;;;;;;12.77;8.18;;;24.00;99.90;;;;;;5004555;28;20081;-85
2020/12/05 07:30:17;;;;;;;14.45;7.70;;;23.90;99.90;;;;;;5008763;28;20022;-85
2020/12/05 07:32:45;;;;;;;13.07;8.93;;;24.00;99.90;;;;;;5010365;28;20076;-84
2020/12/05 07:35:18;;;;;;;15.88;9.02;;;23.90;99.90;;;;;;5008665;28;20026;-85
2020/12/05 07:37:45;;;;;;;12.52;7.82;;;23.80;99.90;;;;;;5013480;28;20026;-86
2020/12/05 07:40:13;;;;;;;14.43;9.15;;;23.80;99.90;;;;;;4984422;28;20026;-86
2020/12/05 07:42:43;;;;;;;14.75;9.05;;;23.70;99.90;;;;;;5004167;28;20026;-84
2020/12/05 07:45:12;;;;;;;15.48;9.10;;;23.70;99.90;;;;;;5009387;28;20367;-86
2020/12/05 07:47:41;;;;;;;17.05;9.80;;;23.70;99.90;;;;;;5008194;28;20081;-85
2020/12/05 07:50:10;;;;;;;17.50;10.77;;;23.70;99.90;;;;;;5008072;28;20026;-84
2020/12/05 07:52:41;;;;;;;19.08;10.38;;;23.60;99.90;;;;;;5004579;28;20042;-83
2020/12/05 07:55:11;;;;;;;17.23;9.50;;;23.50;99.90;;;;;;5008156;28;20017;-85
2020/12/05 07:57:47;;;;;;;20.60;9.80;;;23.50;99.90;;;;;;5011593;28;20033;-84
2020/12/05 08:00:15;;;;;;;18.73;9.07;;;23.40;99.90;;;;;;5009757;28;20101;-87
2020/12/05 08:03:03;;;;;;;15.57;9.27;;;23.40;99.90;;;;;;5013133;28;20068;-84
2020/12/05 08:06:06;;;;;;;17.83;9.90;;;23.40;99.90;;;;;;5012799;28;20121;-82
2020/12/05 08:08:37;;;;;;;16.77;9.90;;;23.40;99.90;;;;;;4930269;29;20039;-82
2020/12/05 08:11:05;;;;;;;17.63;10.05;;;23.50;99.90;;;;;;4996791;28;20056;-82
2020/12/05 08:13:36;;;;;;;17.98;10.43;;;23.40;99.90;;;;;;5013367;28;20029;-82
2020/12/05 08:16:05;;;;;;;15.38;9.40;;;23.40;99.90;;;;;;5031276;23;20520;-81
2020/12/05 08:18:35;;;;;;;19.05;9.93;;;23.40;99.90;;;;;;5038535;23;20053;-82
2020/12/05 08:21:04;;;;;;;19.45;10.50;;;23.40;99.90;;;;;;5077013;23;20057;-82
2020/12/05 08:26:08;;;;;;;18.77;10.65;;;23.30;99.90;;;;;;5039541;28;20072;-81
2020/12/05 08:28:43;;;;;;;23.23;11.85;;;23.30;99.90;;;;;;5023193;28;20109;-80
2020/12/05 08:31:12;;;;;;;16.95;9.95;;;23.20;99.90;;;;;;5014397;28;20095;-81
2020/12/05 08:33:48;;;;;;;20.80;10.60;;;23.20;99.90;;;;;;5036062;23;20046;-82
2020/12/05 08:36:34;;;;;;;21.27;10.50;;;23.10;99.90;;;;;;5014643;28;20113;-82
2020/12/05 08:39:15;;;;;;;18.00;9.95;;;23.10;99.90;;;;;;5056075;28;20025;-81
2020/12/05 08:41:45;;;;;;;20.80;9.93;;;23.10;99.90;;;;;;5046596;28;20021;-80
2020/12/05 08:44:20;;;;;;;21.35;9.98;;;23.10;99.90;;;;;;5037985;28;20025;-80
2020/12/05 08:47:07;;;;;;;25.02;12.38;;;23.00;99.90;;;;;;5020546;28;20094;-80
2020/12/05 08:49:48;;;;;;;21.52;10.68;;;22.90;99.90;;;;;;5042931;23;20374;-81
2020/12/05 08:52:17;;;;;;;20.60;11.20;;;22.70;99.90;;;;;;5054722;28;20025;-80
2020/12/05 08:54:44;;;;;;;21.45;11.50;;;22.50;99.90;;;;;;5053116;28;20013;-80
2020/12/05 08:57:13;;;;;;;28.70;14.80;;;22.50;99.90;;;;;;5053761;28;20025;-81
2020/12/05 08:59:41;;;;;;;23.52;12.68;;;22.40;99.90;;;;;;5054255;28;20028;-80
2020/12/05 09:02:10;;;;;;;23.02;11.82;;;22.40;99.90;;;;;;5034885;28;20071;-80
2020/12/05 09:04:38;;;;;;;24.23;11.30;;;22.50;99.90;;;;;;5051890;28;20028;-80
2020/12/05 09:07:18;;;;;;;24.95;11.05;;;22.50;99.90;;;;;;5053619;28;20524;-79
2020/12/05 09:09:48;;;;;;;22.38;10.70;;;22.50;99.90;;;;;;5052866;28;20048;-80
2020/12/05 09:12:19;;;;;;;21.90;11.70;;;22.50;99.90;;;;;;5051013;28;20021;-81
2020/12/05 09:14:52;;;;;;;20.77;11.48;;;22.60;99.90;;;;;;5049155;28;20025;-80
2020/12/05 09:17:25;;;;;;;20.63;10.97;;;22.60;99.90;;;;;;5033855;28;20025;-80
2020/12/05 09:20:21;;;;;;;22.73;12.30;;;22.60;99.90;;;;;;5034979;28;20699;-79
2020/12/05 09:22:52;;;;;;;17.95;11.70;;;22.70;99.90;;;;;;5046862;23;20048;-79
2020/12/05 09:25:31;;;;;;;18.45;10.75;;;22.60;99.90;;;;;;5033076;28;20018;-79
2020/12/05 09:28:00;;;;;;;20.30;10.77;;;22.60;99.90;;;;;;5013324;28;20049;-78
2020/12/05 09:30:30;;;;;;;22.13;11.05;;;22.50;99.90;;;;;;5028429;28;20029;-79
2020/12/05 09:32:58;;;;;;;21.58;11.00;;;22.60;99.90;;;;;;5032980;28;20028;-79
2020/12/05 09:35:25;;;;;;;16.02;9.18;;;22.50;99.90;;;;;;5032787;28;20061;-78
2020/12/05 09:37:53;;;;;;;14.07;8.90;;;22.50;99.90;;;;;;5015191;28;20035;-78
2020/12/05 09:40:21;;;;;;;16.33;9.32;;;22.50;99.90;;;;;;5032018;28;20024;-78
2020/12/05 09:42:49;;;;;;;17.25;9.20;;;22.50;99.90;;;;;;5032557;28;20022;-78
2020/12/05 09:45:17;;;;;;;19.85;10.82;;;22.50;99.90;;;;;;5043001;28;20029;-78
2020/12/05 09:47:45;;;;;;;14.40;8.85;;;22.50;99.90;;;;;;5032570;28;20056;-79
2020/12/05 09:50:14;;;;;;;17.80;9.48;;;22.50;99.90;;;;;;5027129;28;20025;-83
2020/12/05 09:52:42;;;;;;;17.92;10.57;;;22.50;99.90;;;;;;5034407;28;20029;-81
2020/12/05 09:55:10;;;;;;;14.82;10.05;;;22.40;99.90;;;;;;5012639;28;20033;-82
2020/12/05 09:57:38;;;;;;;18.23;12.32;;;22.40;99.90;;;;;;5034607;28;20490;-81
2020/12/05 10:00:09;;;;;;;14.98;10.20;;;22.40;99.90;;;;;;5027471;28;20433;-82
2020/12/05 10:02:41;;;;;;;19.77;11.30;;;22.30;99.90;;;;;;5022913;28;20064;-81
2020/12/05 10:05:10;;;;;;;17.67;9.60;;;22.30;99.90;;;;;;5030319;28;20371;-81
2020/12/05 10:07:41;;;;;;;17.42;8.38;;;22.30;99.90;;;;;;5032091;28;20079;-83
2020/12/05 10:10:10;;;;;;;15.70;8.63;;;22.30;99.90;;;;;;5031988;28;20362;-82
2020/12/05 10:12:38;;;;;;;14.10;9.68;;;22.20;99.90;;;;;;5013239;28;20475;-81
2020/12/05 10:15:06;;;;;;;15.65;9.07;;;22.20;99.90;;;;;;5009873;28;20040;-81
2020/12/05 10:17:34;;;;;;;13.32;8.90;;;22.10;99.90;;;;;;5012492;28;20028;-83
2020/12/05 10:20:01;;;;;;;15.60;8.50;;;22.00;99.90;;;;;;5031044;28;20465;-81
2020/12/05 10:22:29;;;;;;;14.15;7.88;;;22.00;99.90;;;;;;5031074;28;20045;-83
2020/12/05 10:24:56;;;;;;;15.18;9.52;;;21.90;99.90;;;;;;5063878;23;20066;-85
2020/12/05 10:27:23;;;;;;;14.13;8.07;;;21.80;99.90;;;;;;5011693;23;20050;-83
2020/12/05 10:29:50;;;;;;;16.75;8.38;;;21.70;99.90;;;;;;5031336;28;20097;-83
2020/12/05 10:32:21;;;;;;;20.58;8.43;;;21.60;99.90;;;;;;5020459;23;20058;-84
2020/12/05 10:34:48;;;;;;;21.30;7.70;;;21.60;99.90;;;;;;5024691;28;20095;-84
2020/12/05 10:37:15;;;;;;;18.75;7.43;;;21.50;99.90;;;;;;5025298;28;20118;-85
2020/12/05 10:39:43;;;;;;;10.82;6.10;;;21.40;99.90;;;;;;5064664;22;20028;-83
2020/12/05 10:42:10;;;;;;;10.93;6.53;;;21.30;99.90;;;;;;5025127;28;20052;-84
2020/12/05 10:44:37;;;;;;;11.48;5.70;;;21.30;99.90;;;;;;5013155;28;20066;-85
2020/12/05 10:47:05;;;;;;;11.68;5.40;;;21.20;99.90;;;;;;5032472;28;20037;-86
2020/12/05 10:49:32;;;;;;;9.55;4.45;;;21.20;99.90;;;;;;5016455;28;20052;-85
2020/12/05 10:51:59;;;;;;;10.55;4.63;;;21.20;99.90;;;;;;5029865;28;20025;-83
2020/12/05 10:54:26;;;;;;;10.23;4.63;;;21.10;99.90;;;;;;4994893;28;20076;-83
2020/12/05 10:56:54;;;;;;;7.22;5.00;;;21.10;99.90;;;;;;5025894;23;20045;-87
2020/12/05 10:59:21;;;;;;;10.70;4.60;;;21.10;99.90;;;;;;5031275;28;20022;-89
2020/12/05 11:01:49;;;;;;;9.30;4.70;;;21.10;99.90;;;;;;5031433;28;20045;-88
2020/12/05 11:04:16;;;;;;;6.53;3.75;;;21.10;99.90;;;;;;5032173;28;20021;-88
2020/12/05 11:06:44;;;;;;;6.70;3.75;;;21.10;99.90;;;;;;5030545;28;20041;-87
2020/12/05 11:09:11;;;;;;;9.85;3.42;;;21.00;99.90;;;;;;5030434;28;20025;-86
2020/12/05 11:11:38;;;;;;;5.72;2.80;;;21.00;99.90;;;;;;5023863;28;20144;-87
2020/12/05 11:14:06;;;;;;;5.93;2.60;;;21.00;99.90;;;;;;5013287;28;20045;-86
2020/12/05 11:16:33;;;;;;;3.65;1.55;;;21.00;99.90;;;;;;5030716;28;20130;-85
2020/12/05 11:19:00;;;;;;;5.20;1.88;;;21.30;99.90;;;;;;5012996;28;20061;-85
2020/12/05 11:21:28;;;;;;;3.63;1.92;;;21.30;99.90;;;;;;5030645;28;20030;-85
2020/12/05 11:23:55;;;;;;;7.28;2.50;;;21.20;99.90;;;;;;5006836;28;20022;-86
2020/12/05 11:26:23;;;;;;;5.80;2.00;;;21.20;99.90;;;;;;5028328;28;20051;-86
2020/12/05 11:28:51;;;;;;;7.30;2.13;;;21.20;99.90;;;;;;5029648;28;20450;-87
2020/12/05 11:31:18;;;;;;;4.85;2.08;;;21.30;99.90;;;;;;5033183;23;20073;-85
2020/12/05 11:33:46;;;;;;;2.95;2.05;;;21.40;99.90;;;;;;5013579;28;20545;-86
2020/12/05 11:36:14;;;;;;;6.82;2.00;;;21.50;99.90;;;;;;5024851;28;20430;-85
2020/12/05 11:38:42;;;;;;;4.68;1.33;;;21.60;99.90;;;;;;5004908;28;20038;-83
2020/12/05 11:41:09;;;;;;;4.82;1.63;;;21.60;99.90;;;;;;5023223;28;20037;-86
2020/12/05 11:43:36;;;;;;;7.25;2.20;;;21.60;99.90;;;;;;5035123;28;20117;-86
2020/12/05 11:46:03;;;;;;;5.60;2.03;;;21.60;99.90;;;;;;5017200;28;20041;-84
2020/12/05 11:48:31;;;;;;;3.45;1.63;;;21.60;99.90;;;;;;5025165;28;20033;-84
2020/12/05 11:50:58;;;;;;;2.80;1.30;;;21.60;99.90;;;;;;5007206;28;20030;-87
2020/12/05 11:53:25;;;;;;;3.97;1.50;;;21.70;99.90;;;;;;5032520;28;20030;-84
2020/12/05 11:55:52;;;;;;;2.25;1.00;;;21.80;99.90;;;;;;5025470;28;20036;-83
2020/12/05 11:58:20;;;;;;;3.17;1.70;;;22.00;99.90;;;;;;5033445;28;20055;-82
2020/12/05 12:00:47;;;;;;;5.63;2.20;;;22.00;99.90;;;;;;5033666;28;20078;-86
2020/12/05 12:03:14;;;;;;;5.07;1.55;;;21.80;99.90;;;;;;5027057;28;20033;-86
2020/12/05 12:05:42;;;;;;;5.63;1.45;;;21.80;99.90;;;;;;5031155;28;20491;-86
2020/12/05 12:08:09;;;;;;;2.85;1.05;;;21.80;99.90;;;;;;5025002;28;20042;-81
2020/12/05 12:10:36;;;;;;;2.55;1.00;;;22.00;99.90;;;;;;5007567;28;20025;-85
2020/12/05 12:13:04;;;;;;;2.58;1.10;;;22.10;99.90;;;;;;5034862;28;20033;-85
2020/12/05 12:15:31;;;;;;;2.00;1.13;;;22.10;99.90;;;;;;5025608;28;20037;-86
2020/12/05 12:17:58;;;;;;;3.05;1.30;;;22.10;99.90;;;;;;5033586;28;20078;-86
2020/12/05 12:20:26;;;;;;;1.98;1.17;;;22.00;99.90;;;;;;5032536;28;20104;-86
2020/12/05 12:22:53;;;;;;;2.15;1.10;;;22.00;99.90;;;;;;5020427;28;20053;-86
2020/12/05 12:25:20;;;;;;;3.42;0.90;;;22.00;99.90;;;;;;5026887;28;20104;-86
2020/12/05 12:27:48;;;;;;;1.35;0.98;;;22.00;99.90;;;;;;5009191;28;20033;-87
2020/12/05 12:30:15;;;;;;;2.13;0.88;;;22.00;99.90;;;;;;5033064;28;20045;-86
2020/12/05 12:32:42;;;;;;;1.80;1.02;;;21.90;99.90;;;;;;5047603;23;20048;-86
2020/12/05 12:35:11;;;;;;;3.03;1.30;;;21.80;99.90;;;;;;5059188;23;20049;-86
2020/12/05 12:37:38;;;;;;;2.55;1.65;;;21.60;99.90;;;;;;5053349;28;20029;-86
2020/12/05 12:40:06;;;;;;;6.80;1.73;;;21.50;99.90;;;;;;5033672;23;20147;-86
2020/12/05 12:42:33;;;;;;;2.05;1.20;;;21.40;99.90;;;;;;5011634;28;20041;-85
2020/12/05 12:45:00;;;;;;;4.00;1.38;;;21.30;99.90;;;;;;5013814;28;20033;-86
2020/12/05 12:50:02;;;;;;;4.53;1.42;;;21.30;99.90;;;;;;5022189;28;20486;-86
2020/12/05 12:52:30;;;;;;;2.83;1.35;;;21.30;99.90;;;;;;5053099;28;20037;-85
2020/12/05 12:54:57;;;;;;;7.43;1.50;;;21.30;99.90;;;;;;5053610;28;20111;-85